Time;durP1;ratioP1;P1;durP2;ratioP2;P2;SDS_P1;SDS_P2;PMS_P1;PMS_P2;Temp;Humidity;BMP_temperature;BMP_pressure;BME280_temperature;BME280_humidity;BME280_pressure;Samples;Min_cycle;Max_cycle;Signal;HPM_P1;HPM_P2
2023/12/02 00:00:45;;;;;;;45.78;23.30;;;;;;;;;;6194029;23;20096;-84
2023/12/02 00:03:11;;;;;;;38.47;19.15;;;;;;;;;;6193752;23;20460;-84
2023/12/02 00:05:37;;;;;;;39.17;17.42;;;;;;;;;;6192001;23;20072;-84
2023/12/02 00:08:06;;;;;;;31.67;17.52;;;;;;;;;;6193451;23;20095;-84
2023/12/02 00:10:32;;;;;;;31.20;16.45;;;;;;;;;;6194040;23;20076;-84
2023/12/02 00:12:58;;;;;;;33.50;17.13;;;;;;;;;;6192812;23;20022;-84
2023/12/02 00:15:24;;;;;;;33.05;16.20;;;;;;;;;;6193898;23;20051;-84
2023/12/02 00:17:51;;;;;;;30.95;15.70;;;;;;;;;;6193519;23;20078;-84
2023/12/02 00:20:17;;;;;;;30.92;16.02;;;;;;;;;;6193557;23;20286;-84
2023/12/02 00:22:43;;;;;;;33.20;16.20;;;;;;;;;;6192839;23;20027;-84
2023/12/02 00:25:09;;;;;;;35.78;18.02;;;;;;;;;;6193456;23;20016;-84
2023/12/02 00:27:35;;;;;;;33.63;16.42;;;;;;;;;;6192745;23;20016;-84
2023/12/02 00:30:01;;;;;;;29.08;14.90;;;;;;;;;;6193291;23;20023;-84
2023/12/02 00:32:27;;;;;;;30.83;16.88;;;;;;;;;;6193356;23;20072;-84
2023/12/02 00:34:54;;;;;;;36.58;18.20;;;;;;;;;;6193336;23;20015;-84
2023/12/02 00:37:20;;;;;;;32.05;15.30;;;;;;;;;;6193368;23;20020;-84
2023/12/02 00:39:46;;;;;;;28.77;15.30;;;;;;;;;;6193268;23;20306;-84
2023/12/02 00:42:12;;;;;;;28.98;15.10;;;;;;;;;;6193744;23;20020;-84
2023/12/02 00:44:38;;;;;;;29.10;15.02;;;;;;;;;;6193533;23;20020;-84
2023/12/02 00:47:05;;;;;;;33.10;16.20;;;;;;;;;;6193505;23;20089;-84
2023/12/02 00:49:31;;;;;;;23.25;13.13;;;;;;;;;;6192935;23;20020;-84
2023/12/02 00:51:57;;;;;;;27.13;14.32;;;;;;;;;;6192218;23;20042;-84
2023/12/02 00:54:23;;;;;;;28.58;14.85;;;;;;;;;;6193479;23;20054;-84
2023/12/02 00:56:49;;;;;;;36.35;18.30;;;;;;;;;;6192870;23;20103;-84
2023/12/02 00:59:15;;;;;;;30.30;15.73;;;;;;;;;;6193256;23;20072;-84
2023/12/02 01:01:42;;;;;;;36.80;17.83;;;;;;;;;;6191775;23;20012;-84
2023/12/02 01:04:08;;;;;;;30.58;15.10;;;;;;;;;;6192990;23;20051;-84
2023/12/02 01:06:34;;;;;;;30.10;15.50;;;;;;;;;;6192764;23;20070;-84
2023/12/02 01:09:00;;;;;;;33.25;15.82;;;;;;;;;;6192624;23;20012;-84
2023/12/02 01:11:26;;;;;;;32.08;16.23;;;;;;;;;;6193320;23;20020;-84
2023/12/02 01:13:52;;;;;;;32.33;17.63;;;;;;;;;;6192319;23;20441;-84
2023/12/02 01:16:18;;;;;;;36.83;17.35;;;;;;;;;;6192581;23;20020;-84
2023/12/02 01:18:44;;;;;;;30.75;15.73;;;;;;;;;;6192192;23;20460;-84
2023/12/02 01:21:11;;;;;;;31.48;16.30;;;;;;;;;;6192941;23;20390;-84
2023/12/02 01:23:37;;;;;;;29.77;15.90;;;;;;;;;;6192747;23;20078;-84
2023/12/02 01:26:03;;;;;;;33.90;17.23;;;;;;;;;;6193245;23;20034;-84
2023/12/02 01:28:29;;;;;;;30.83;15.57;;;;;;;;;;6192900;23;20020;-84
2023/12/02 01:30:55;;;;;;;34.30;17.20;;;;;;;;;;6193069;23;20016;-84
2023/12/02 01:33:21;;;;;;;29.80;14.65;;;;;;;;;;6192228;23;20352;-84
2023/12/02 01:35:49;;;;;;;31.63;16.13;;;;;;;;;;6192821;23;20067;-84
2023/12/02 01:38:15;;;;;;;33.55;16.67;;;;;;;;;;6192123;23;20016;-84
2023/12/02 01:40:41;;;;;;;34.42;16.77;;;;;;;;;;6193313;23;20098;-84
2023/12/02 01:43:07;;;;;;;32.42;15.80;;;;;;;;;;6192668;23;20095;-84
2023/12/02 01:45:33;;;;;;;28.52;15.77;;;;;;;;;;6192509;23;20027;-84
2023/12/02 01:48:00;;;;;;;34.50;17.08;;;;;;;;;;6192132;23;20016;-84
2023/12/02 01:50:26;;;;;;;32.00;14.77;;;;;;;;;;6192542;23;20016;-84
2023/12/02 01:52:52;;;;;;;31.00;16.30;;;;;;;;;;6193933;23;20042;-84
2023/12/02 01:55:21;;;;;;;30.35;16.23;;;;;;;;;;6194431;23;20048;-84
2023/12/02 01:57:47;;;;;;;29.80;16.23;;;;;;;;;;6194289;23;20091;-84
2023/12/02 02:00:13;;;;;;;33.78;17.60;;;;;;;;;;6194013;23;20027;-84
2023/12/02 02:02:39;;;;;;;33.13;16.75;;;;;;;;;;6194814;23;20123;-84
2023/12/02 02:05:06;;;;;;;34.65;17.10;;;;;;;;;;6193723;23;20425;-84
2023/12/02 02:07:32;;;;;;;31.52;16.55;;;;;;;;;;6193585;23;20016;-84
2023/12/02 02:09:58;;;;;;;33.97;17.38;;;;;;;;;;6194471;23;20031;-84
2023/12/02 02:12:25;;;;;;;32.65;17.75;;;;;;;;;;6194231;23;20345;-84
2023/12/02 02:14:51;;;;;;;32.60;16.92;;;;;;;;;;6194420;23;20147;-84
2023/12/02 02:17:17;;;;;;;33.50;16.95;;;;;;;;;;6194681;23;20408;-84
2023/12/02 02:19:43;;;;;;;35.78;17.45;;;;;;;;;;6194714;23;20360;-84
2023/12/02 02:22:10;;;;;;;38.42;20.15;;;;;;;;;;6194272;23;20383;-84
2023/12/02 02:24:37;;;;;;;36.63;17.55;;;;;;;;;;6194259;23;20016;-84
2023/12/02 02:27:03;;;;;;;36.78;19.35;;;;;;;;;;6194275;23;20020;-84
2023/12/02 02:29:29;;;;;;;33.55;17.05;;;;;;;;;;6194367;23;20016;-84
2023/12/02 02:31:55;;;;;;;35.03;17.38;;;;;;;;;;6192909;23;20542;-84
2023/12/02 02:34:22;;;;;;;35.17;19.95;;;;;;;;;;6194427;23;20020;-84
2023/12/02 02:36:50;;;;;;;36.40;19.40;;;;;;;;;;6194357;23;20020;-84
2023/12/02 02:39:16;;;;;;;37.20;18.75;;;;;;;;;;6193843;23;20047;-84
2023/12/02 02:41:42;;;;;;;37.08;19.02;;;;;;;;;;6193914;23;20341;-84
2023/12/02 02:44:09;;;;;;;33.40;17.90;;;;;;;;;;6194465;23;20345;-84
2023/12/02 02:46:35;;;;;;;34.55;17.77;;;;;;;;;;6193704;23;20035;-84
2023/12/02 02:49:01;;;;;;;39.08;18.90;;;;;;;;;;6193904;23;20023;-84
2023/12/02 02:51:27;;;;;;;33.72;17.00;;;;;;;;;;6194630;23;20047;-84
2023/12/02 02:53:53;;;;;;;35.75;18.27;;;;;;;;;;6194039;23;20048;-84
2023/12/02 02:56:19;;;;;;;37.50;19.10;;;;;;;;;;6194496;23;20310;-84
2023/12/02 02:58:45;;;;;;;37.58;17.77;;;;;;;;;;6194466;23;20016;-84
2023/12/02 03:01:12;;;;;;;36.25;18.77;;;;;;;;;;6193730;23;20046;-84
2023/12/02 03:03:39;;;;;;;35.78;17.67;;;;;;;;;;6193897;23;20020;-84
2023/12/02 03:06:05;;;;;;;36.30;17.42;;;;;;;;;;6193889;23;20027;-84
2023/12/02 03:08:31;;;;;;;32.22;17.65;;;;;;;;;;6193699;23;20103;-84
2023/12/02 03:10:58;;;;;;;35.00;18.10;;;;;;;;;;6194223;23;20016;-84
2023/12/02 03:13:24;;;;;;;34.08;18.10;;;;;;;;;;6192834;23;20348;-84
2023/12/02 03:15:50;;;;;;;36.28;18.77;;;;;;;;;;6193043;23;20023;-84
2023/12/02 03:18:16;;;;;;;37.35;19.25;;;;;;;;;;6194325;23;20023;-84
2023/12/02 03:20:42;;;;;;;37.92;17.50;;;;;;;;;;6194417;23;20016;-84
2023/12/02 03:23:08;;;;;;;35.25;18.30;;;;;;;;;;6194084;23;20103;-84
2023/12/02 03:25:35;;;;;;;32.92;16.38;;;;;;;;;;6194036;23;20023;-84
2023/12/02 03:28:01;;;;;;;36.58;18.10;;;;;;;;;;6194113;23;20089;-84
2023/12/02 03:30:27;;;;;;;34.35;17.02;;;;;;;;;;6193038;23;20020;-84
2023/12/02 03:32:53;;;;;;;32.00;16.38;;;;;;;;;;6193363;23;20018;-84
2023/12/02 03:35:20;;;;;;;38.25;18.20;;;;;;;;;;6193615;23;20012;-84
2023/12/02 03:37:46;;;;;;;36.20;17.73;;;;;;;;;;6193588;23;20072;-84
2023/12/02 03:40:13;;;;;;;34.17;17.55;;;;;;;;;;6194324;23;20019;-84
2023/12/02 03:42:39;;;;;;;33.15;16.65;;;;;;;;;;6193144;23;20012;-84
2023/12/02 03:45:06;;;;;;;38.10;17.67;;;;;;;;;;6193018;23;20017;-84
2023/12/02 03:47:32;;;;;;;34.75;17.15;;;;;;;;;;6193540;23;20400;-84
2023/12/02 03:49:59;;;;;;;32.17;16.17;;;;;;;;;;6194350;23;20023;-84
2023/12/02 03:52:25;;;;;;;35.90;17.67;;;;;;;;;;6193530;23;20064;-84
2023/12/02 03:54:51;;;;;;;30.35;16.45;;;;;;;;;;6192867;23;20020;-84
2023/12/02 03:57:17;;;;;;;31.63;16.77;;;;;;;;;;6193455;23;20023;-84
2023/12/02 03:59:43;;;;;;;33.20;17.65;;;;;;;;;;6192860;23;20035;-84
2023/12/02 04:02:09;;;;;;;33.38;17.55;;;;;;;;;;6194087;23;20364;-84
2023/12/02 04:04:36;;;;;;;35.88;18.05;;;;;;;;;;6192969;23;20334;-84
2023/12/02 04:07:02;;;;;;;33.97;17.30;;;;;;;;;;6193545;23;20036;-84
2023/12/02 04:09:28;;;;;;;34.67;17.63;;;;;;;;;;6193811;23;20016;-84
2023/12/02 04:11:54;;;;;;;33.72;16.85;;;;;;;;;;6193761;23;20012;-85
2023/12/02 04:14:20;;;;;;;31.13;16.20;;;;;;;;;;6193894;23;20064;-85
2023/12/02 04:16:46;;;;;;;33.08;16.73;;;;;;;;;;6193671;23;20094;-85
2023/12/02 04:19:13;;;;;;;32.88;17.27;;;;;;;;;;6193931;23;20012;-85
2023/12/02 04:21:42;;;;;;;35.22;17.10;;;;;;;;;;6194086;23;20028;-85
2023/12/02 04:24:09;;;;;;;31.48;17.33;;;;;;;;;;6193636;23;20015;-85
2023/12/02 04:26:36;;;;;;;35.17;17.48;;;;;;;;;;6193083;23;20016;-85
2023/12/02 04:29:04;;;;;;;30.33;15.18;;;;;;;;;;6193546;23;20024;-84
2023/12/02 04:31:30;;;;;;;30.88;15.95;;;;;;;;;;6193202;23;20091;-85
2023/12/02 04:33:59;;;;;;;32.05;16.00;;;;;;;;;;6193158;23;20023;-84
2023/12/02 04:36:26;;;;;;;32.33;16.38;;;;;;;;;;6192350;23;20020;-84
2023/12/02 04:38:52;;;;;;;32.92;16.50;;;;;;;;;;6192963;23;20514;-84
2023/12/02 04:41:18;;;;;;;29.77;15.55;;;;;;;;;;6194001;23;20020;-84
2023/12/02 04:43:44;;;;;;;27.55;15.05;;;;;;;;;;6193642;23;20024;-84
2023/12/02 04:46:10;;;;;;;31.30;15.85;;;;;;;;;;6192625;23;20016;-84
2023/12/02 04:48:37;;;;;;;27.83;14.73;;;;;;;;;;6192987;23;20157;-84
2023/12/02 04:51:03;;;;;;;32.78;16.63;;;;;;;;;;6193592;23;20012;-85
2023/12/02 04:53:30;;;;;;;30.63;15.45;;;;;;;;;;6193055;23;20016;-85
2023/12/02 04:55:56;;;;;;;31.52;15.88;;;;;;;;;;6193254;23;20016;-84
2023/12/02 04:58:22;;;;;;;28.45;14.82;;;;;;;;;;6193233;23;20155;-85
2023/12/02 05:00:51;;;;;;;33.88;15.52;;;;;;;;;;6192965;23;20016;-84
2023/12/02 05:03:19;;;;;;;30.67;15.40;;;;;;;;;;6192764;23;20020;-85
2023/12/02 05:05:46;;;;;;;30.38;14.60;;;;;;;;;;6192808;23;20028;-84
2023/12/02 05:08:12;;;;;;;27.80;15.27;;;;;;;;;;6192020;23;20094;-85
2023/12/02 05:10:38;;;;;;;29.25;15.18;;;;;;;;;;6197421;23;20078;-85
2023/12/02 05:13:04;;;;;;;29.52;15.32;;;;;;;;;;6202601;23;20020;-84
2023/12/02 05:15:31;;;;;;;28.90;15.13;;;;;;;;;;6202423;23;20020;-84
2023/12/02 05:17:57;;;;;;;29.52;14.02;;;;;;;;;;6196644;23;20020;-84
2023/12/02 05:20:23;;;;;;;28.17;14.55;;;;;;;;;;6193471;23;20476;-85
2023/12/02 05:22:49;;;;;;;30.48;15.05;;;;;;;;;;6193262;23;20429;-84
2023/12/02 05:25:16;;;;;;;27.80;15.90;;;;;;;;;;6194450;23;20024;-85
2023/12/02 05:27:42;;;;;;;31.58;16.80;;;;;;;;;;6195247;23;20027;-85
2023/12/02 05:30:14;;;;;;;31.70;16.45;;;;;;;;;;6195686;23;20023;-85
2023/12/02 05:32:40;;;;;;;29.13;15.13;;;;;;;;;;6195526;23;20052;-85
2023/12/02 05:35:10;;;;;;;32.28;16.67;;;;;;;;;;6195612;23;20016;-85
2023/12/02 05:37:36;;;;;;;31.88;16.00;;;;;;;;;;6194796;23;20016;-85
2023/12/02 05:40:04;;;;;;;29.27;15.00;;;;;;;;;;6195730;23;20094;-85
2023/12/02 05:42:30;;;;;;;31.02;15.20;;;;;;;;;;6195139;23;20012;-85
2023/12/02 05:44:56;;;;;;;32.35;18.10;;;;;;;;;;6194919;23;20012;-85
2023/12/02 05:47:22;;;;;;;30.33;15.32;;;;;;;;;;6195440;23;20016;-85
2023/12/02 05:49:52;;;;;;;27.90;15.50;;;;;;;;;;6195729;23;20044;-85
2023/12/02 05:52:18;;;;;;;33.42;16.05;;;;;;;;;;6195310;23;20368;-85
2023/12/02 05:54:44;;;;;;;30.80;16.13;;;;;;;;;;6195289;23;20102;-85
2023/12/02 05:57:11;;;;;;;25.48;15.05;;;;;;;;;;6194889;23;20066;-85
2023/12/02 05:59:38;;;;;;;31.33;15.68;;;;;;;;;;6195196;23;20044;-85
2023/12/02 06:02:04;;;;;;;29.35;15.57;;;;;;;;;;6195265;23;20453;-85
2023/12/02 06:04:33;;;;;;;31.33;15.63;;;;;;;;;;6194759;23;20035;-85
2023/12/02 06:06:59;;;;;;;31.10;16.50;;;;;;;;;;6195383;23;20063;-85
2023/12/02 06:09:25;;;;;;;29.73;15.18;;;;;;;;;;6195243;23;20047;-85
2023/12/02 06:11:52;;;;;;;29.45;15.45;;;;;;;;;;6194579;23;20077;-85
2023/12/02 06:14:18;;;;;;;29.10;15.05;;;;;;;;;;6194975;23;20022;-85
2023/12/02 06:16:47;;;;;;;28.75;15.07;;;;;;;;;;6195672;23;20187;-85
2023/12/02 06:19:13;;;;;;;26.27;14.02;;;;;;;;;;6195056;23;20510;-85
2023/12/02 06:21:39;;;;;;;29.83;15.55;;;;;;;;;;6195000;23;20377;-85
2023/12/02 06:24:08;;;;;;;30.77;16.10;;;;;;;;;;6195299;23;20044;-85
2023/12/02 06:26:34;;;;;;;28.63;14.70;;;;;;;;;;6194745;23;20039;-85
2023/12/02 06:29:00;;;;;;;29.27;15.20;;;;;;;;;;6195160;23;20093;-85
2023/12/02 06:31:26;;;;;;;30.05;14.52;;;;;;;;;;6194838;23;20062;-85
2023/12/02 06:33:52;;;;;;;32.33;15.75;;;;;;;;;;6194290;23;20518;-85
2023/12/02 06:36:18;;;;;;;28.52;14.80;;;;;;;;;;6194436;23;20387;-85
2023/12/02 06:38:45;;;;;;;27.48;14.00;;;;;;;;;;6194260;23;20016;-85
2023/12/02 06:41:11;;;;;;;31.55;15.40;;;;;;;;;;6193812;23;20016;-85
2023/12/02 06:43:37;;;;;;;31.27;14.82;;;;;;;;;;6195044;23;20101;-85
2023/12/02 06:46:03;;;;;;;33.50;16.13;;;;;;;;;;6194662;23;20016;-85
2023/12/02 06:48:30;;;;;;;31.00;15.13;;;;;;;;;;6194929;23;20082;-85
2023/12/02 06:50:56;;;;;;;33.97;15.80;;;;;;;;;;6195218;23;20460;-85
2023/12/02 06:53:22;;;;;;;29.00;14.35;;;;;;;;;;6195141;23;20070;-85
2023/12/02 06:55:51;;;;;;;32.38;15.45;;;;;;;;;;6195318;23;20039;-85
2023/12/02 06:58:27;;;;;;;31.65;17.15;;;;;;;;;;6195462;23;20016;-91
2023/12/02 07:00:53;;;;;;;;;;;;;;;;;;6196455;23;20333;-86
2023/12/02 07:03:19;;;;;;;30.65;15.27;;;;;;;;;;6196348;23;19912;-86
2023/12/02 07:05:55;;;;;;;32.00;15.48;;;;;;;;;;6195492;23;20023;-90
2023/12/02 07:08:23;;;;;;;29.48;14.15;;;;;;;;;;6194896;23;20016;-88
2023/12/02 07:10:49;;;;;;;29.70;15.35;;;;;;;;;;6195328;23;20016;-86
2023/12/02 07:13:15;;;;;;;31.77;15.98;;;;;;;;;;6195997;23;20016;-86
2023/12/02 07:15:42;;;;;;;31.00;15.15;;;;;;;;;;6195779;23;20433;-86
2023/12/02 07:18:14;;;;;;;33.50;16.58;;;;;;;;;;6196091;23;20016;-86
2023/12/02 07:20:42;;;;;;;31.88;16.33;;;;;;;;;;6197372;23;20032;-86
2023/12/02 07:23:11;;;;;;;26.45;15.45;;;;;;;;;;6196238;23;20090;-87
2023/12/02 07:25:40;;;;;;;32.22;15.10;;;;;;;;;;6195778;23;20012;-87
2023/12/02 07:28:08;;;;;;;29.17;14.23;;;;;;;;;;6196143;23;20441;-85
2023/12/02 07:30:35;;;;;;;29.20;15.10;;;;;;;;;;6194224;23;20023;-85
2023/12/02 07:33:01;;;;;;;29.15;15.20;;;;;;;;;;6193064;23;20026;-85
2023/12/02 07:35:27;;;;;;;29.17;14.85;;;;;;;;;;6193852;23;20525;-85
2023/12/02 07:37:54;;;;;;;29.92;15.40;;;;;;;;;;6193654;23;20020;-85
2023/12/02 07:40:46;;;;;;;27.88;15.18;;;;;;;;;;6193052;23;20368;-89
2023/12/02 07:43:17;;;;;;;29.10;14.60;;;;;;;;;;6190759;23;20432;-86
2023/12/02 07:45:46;;;;;;;28.92;14.57;;;;;;;;;;6193398;23;20017;-85
2023/12/02 07:48:13;;;;;;;30.48;16.27;;;;;;;;;;6193054;23;20023;-86
2023/12/02 07:50:39;;;;;;;29.67;15.55;;;;;;;;;;6194546;23;20020;-86
2023/12/02 07:53:20;;;;;;;32.10;15.25;;;;;;;;;;6193820;23;20016;-86
2023/12/02 07:55:46;;;;;;;28.58;14.55;;;;;;;;;;6193993;23;20023;-86
2023/12/02 07:58:15;;;;;;;28.98;14.48;;;;;;;;;;6193321;23;20026;-86
2023/12/02 08:00:49;;;;;;;25.60;13.95;;;;;;;;;;6194084;23;20024;-85
2023/12/02 08:03:15;;;;;;;32.50;15.75;;;;;;;;;;6193382;23;20020;-86
2023/12/02 08:05:43;;;;;;;28.30;15.07;;;;;;;;;;6193523;23;20023;-86
2023/12/02 08:08:09;;;;;;;25.75;14.20;;;;;;;;;;6193254;23;20447;-86
2023/12/02 08:10:35;;;;;;;26.23;14.05;;;;;;;;;;6194248;23;20472;-86
2023/12/02 08:13:03;;;;;;;25.67;14.05;;;;;;;;;;6193292;23;20028;-85
2023/12/02 08:15:29;;;;;;;25.63;13.35;;;;;;;;;;6193771;23;20020;-85
2023/12/02 08:17:55;;;;;;;25.92;13.70;;;;;;;;;;6193441;23;20020;-85
2023/12/02 08:20:24;;;;;;;23.05;12.85;;;;;;;;;;6193740;23;20012;-85
2023/12/02 08:22:50;;;;;;;22.88;13.27;;;;;;;;;;6193321;23;20020;-86
2023/12/02 08:25:19;;;;;;;24.85;13.10;;;;;;;;;;6194152;23;20143;-87
2023/12/02 08:27:45;;;;;;;23.98;12.40;;;;;;;;;;6193596;23;20070;-85
2023/12/02 08:30:12;;;;;;;22.00;12.20;;;;;;;;;;6194199;23;20019;-85
2023/12/02 08:32:38;;;;;;;23.00;12.32;;;;;;;;;;6193902;23;20018;-84
2023/12/02 08:35:05;;;;;;;21.40;12.15;;;;;;;;;;6194414;23;20027;-84
2023/12/02 08:37:31;;;;;;;20.20;11.68;;;;;;;;;;6193531;23;20062;-86
2023/12/02 08:39:57;;;;;;;22.73;12.65;;;;;;;;;;6194413;23;20012;-86
2023/12/02 08:42:23;;;;;;;21.90;12.25;;;;;;;;;;6192929;23;20020;-85
2023/12/02 08:44:51;;;;;;;19.45;11.32;;;;;;;;;;6193299;23;20016;-88
2023/12/02 08:47:21;;;;;;;20.55;12.07;;;;;;;;;;6193811;23;20085;-85
2023/12/02 08:49:47;;;;;;;24.88;12.52;;;;;;;;;;6189307;23;20508;-84
2023/12/02 08:52:13;;;;;;;19.83;10.85;;;;;;;;;;6190051;23;20051;-85
2023/12/02 08:54:42;;;;;;;20.60;11.65;;;;;;;;;;6191773;23;20379;-84
2023/12/02 08:57:08;;;;;;;20.77;11.85;;;;;;;;;;6193261;23;20017;-84
2023/12/02 08:59:40;;;;;;;21.83;12.20;;;;;;;;;;6193851;23;20039;-85
2023/12/02 09:02:08;;;;;;;19.35;10.82;;;;;;;;;;6194589;23;20016;-85
2023/12/02 09:04:42;;;;;;;20.05;11.02;;;;;;;;;;6218143;23;20031;-86
2023/12/02 09:07:11;;;;;;;20.52;11.77;;;;;;;;;;6192337;23;20012;-85
2023/12/02 09:09:38;;;;;;;22.20;11.32;;;;;;;;;;6192924;23;20067;-84
2023/12/02 09:12:04;;;;;;;19.50;10.88;;;;;;;;;;6192377;23;20020;-84
2023/12/02 09:14:31;;;;;;;22.33;13.05;;;;;;;;;;6192773;23;20023;-84
2023/12/02 09:16:57;;;;;;;23.08;12.85;;;;;;;;;;6194039;23;20016;-86
2023/12/02 09:19:43;;;;;;;23.40;13.15;;;;;;;;;;6192684;23;20425;-84
2023/12/02 09:22:21;;;;;;;18.77;11.32;;;;;;;;;;6192702;23;20012;-84
2023/12/02 09:24:49;;;;;;;17.23;10.85;;;;;;;;;;6192819;23;20019;-84
2023/12/02 09:27:35;;;;;;;18.75;11.00;;;;;;;;;;6193117;23;20012;-84
2023/12/02 09:30:20;;;;;;;17.48;11.07;;;;;;;;;;6193174;23;20012;-88
2023/12/02 09:32:56;;;;;;;15.90;10.23;;;;;;;;;;6193328;23;20067;-89
2023/12/02 09:35:30;;;;;;;14.68;9.52;;;;;;;;;;6198019;23;20024;-89
2023/12/02 09:38:02;;;;;;;15.88;10.15;;;;;;;;;;6196848;23;20095;-86
2023/12/02 09:40:40;;;;;;;15.95;10.13;;;;;;;;;;6195220;23;20019;-85
2023/12/02 09:43:25;;;;;;;18.05;10.00;;;;;;;;;;6194676;23;20061;-84
2023/12/02 09:46:11;;;;;;;16.95;9.55;;;;;;;;;;6195900;23;20023;-85
2023/12/02 09:49:05;;;;;;;18.17;9.48;;;;;;;;;;6221481;23;20059;-84
2023/12/02 09:51:31;;;;;;;11.88;7.78;;;;;;;;;;6194248;23;20345;-85
2023/12/02 09:54:08;;;;;;;11.60;8.23;;;;;;;;;;6194803;23;20077;-82
2023/12/02 09:56:45;;;;;;;14.20;8.65;;;;;;;;;;6193371;23;20031;-83
2023/12/02 09:59:14;;;;;;;12.45;7.85;;;;;;;;;;6194892;23;20027;-88
2023/12/02 10:01:47;;;;;;;13.80;8.85;;;;;;;;;;6193252;23;20071;-85
2023/12/02 10:04:19;;;;;;;16.40;11.65;;;;;;;;;;6189754;23;20107;-84
2023/12/02 10:17:40;;;;;;;35.22;24.25;;;;;;;;;;6071654;23;20566;-86
2023/12/02 10:23:08;;;;;;;33.35;23.83;;;;;;;;;;6101019;23;20113;-86
2023/12/02 10:25:45;;;;;;;26.63;19.75;;;;;;;;;;6077172;23;20391;-87
2023/12/02 10:28:12;;;;;;;21.45;16.00;;;;;;;;;;6150618;23;20016;-85
2023/12/02 10:34:23;;;;;;;21.85;15.45;;;;;;;;;;6219652;23;20016;-86
2023/12/02 10:36:53;;;;;;;18.20;13.90;;;;;;;;;;6194515;23;20157;-83
2023/12/02 10:39:38;;;;;;;19.33;12.15;;;;;;;;;;6194406;23;20165;-83
2023/12/02 10:42:07;;;;;;;13.07;9.05;;;;;;;;;;6194540;23;20020;-83
2023/12/02 10:44:36;;;;;;;16.15;10.18;;;;;;;;;;6195293;23;20027;-84
2023/12/02 10:47:04;;;;;;;15.80;10.38;;;;;;;;;;6194982;23;20039;-84
2023/12/02 10:49:34;;;;;;;12.57;8.55;;;;;;;;;;6194923;23;20017;-84
2023/12/02 10:52:00;;;;;;;14.25;8.85;;;;;;;;;;6194417;23;20016;-84
2023/12/02 10:54:31;;;;;;;15.65;8.93;;;;;;;;;;6194835;23;20024;-84
2023/12/02 10:57:05;;;;;;;14.45;8.90;;;;;;;;;;6194798;23;20496;-84
2023/12/02 10:59:33;;;;;;;14.43;8.27;;;;;;;;;;6194752;23;20345;-84
2023/12/02 11:02:27;;;;;;;15.65;10.32;;;;;;;;;;6195229;23;20012;-84
2023/12/02 11:05:03;;;;;;;13.10;8.55;;;;;;;;;;6190155;23;20024;-84
2023/12/02 11:07:35;;;;;;;14.63;9.05;;;;;;;;;;6195022;23;20101;-87
2023/12/02 11:10:05;;;;;;;13.60;8.07;;;;;;;;;;6194404;23;20012;-84
2023/12/02 11:12:33;;;;;;;11.63;7.85;;;;;;;;;;6194356;23;20020;-86
2023/12/02 11:18:09;;;;;;;10.63;7.20;;;;;;;;;;6219857;23;20115;-84
2023/12/02 11:20:51;;;;;;;9.00;5.50;;;;;;;;;;6195001;23;20086;-86
2023/12/02 11:23:32;;;;;;;9.02;5.43;;;;;;;;;;6194441;23;20102;-83
2023/12/02 11:26:05;;;;;;;7.38;4.40;;;;;;;;;;6194966;23;20012;-83
2023/12/02 11:28:34;;;;;;;7.05;4.60;;;;;;;;;;6194477;23;20012;-86
2023/12/02 11:31:03;;;;;;;7.53;5.00;;;;;;;;;;6194203;23;20024;-84
2023/12/02 11:33:46;;;;;;;7.25;4.63;;;;;;;;;;6194411;23;20012;-87
2023/12/02 11:36:20;;;;;;;8.15;4.35;;;;;;;;;;6195308;23;20504;-84
2023/12/02 11:39:10;;;;;;;6.25;4.07;;;;;;;;;;6194994;23;20305;-84
2023/12/02 11:41:47;;;;;;;9.65;4.43;;;;;;;;;;6151469;23;20016;-83
2023/12/02 11:44:32;;;;;;;7.13;3.90;;;;;;;;;;6194926;23;20020;-84
2023/12/02 11:47:06;;;;;;;5.57;4.25;;;;;;;;;;6220498;23;20020;-83
2023/12/02 11:49:41;;;;;;;6.18;3.35;;;;;;;;;;6196002;23;20023;-83
2023/12/02 11:52:26;;;;;;;6.07;3.58;;;;;;;;;;6196727;23;20523;-83
2023/12/02 11:55:03;;;;;;;4.65;3.22;;;;;;;;;;6195838;23;20117;-83
2023/12/02 11:57:36;;;;;;;7.20;3.80;;;;;;;;;;6195347;23;20012;-84
2023/12/02 12:00:09;;;;;;;6.30;3.53;;;;;;;;;;6195503;23;20326;-84
2023/12/02 12:02:35;;;;;;;6.97;3.97;;;;;;;;;;6197073;23;20074;-82
2023/12/02 12:05:11;;;;;;;6.45;4.00;;;;;;;;;;6197806;23;20023;-82
2023/12/02 12:07:37;;;;;;;;;;;;;;;;;;6199960;23;20024;-82
2023/12/02 12:10:07;;;;;;;7.77;3.60;;;;;;;;;;6198994;23;19919;-82
2023/12/02 12:12:36;;;;;;;7.03;3.83;;;;;;;;;;6196374;23;20326;-83
2023/12/02 12:15:02;;;;;;;7.78;3.80;;;;;;;;;;6195285;23;20020;-82
2023/12/02 12:17:29;;;;;;;5.35;3.70;;;;;;;;;;6195144;23;20051;-82
2023/12/02 12:19:59;;;;;;;6.47;3.85;;;;;;;;;;6219987;23;20020;-82
2023/12/02 12:22:28;;;;;;;7.30;3.92;;;;;;;;;;6221264;23;20023;-83
2023/12/02 12:24:54;;;;;;;10.07;3.88;;;;;;;;;;6220483;23;20027;-82
2023/12/02 12:27:20;;;;;;;6.03;3.80;;;;;;;;;;6247958;23;20019;-82
2023/12/02 12:29:55;;;;;;;6.15;3.97;;;;;;;;;;6194271;23;20095;-83
2023/12/02 12:32:22;;;;;;;6.03;3.90;;;;;;;;;;6220042;23;20022;-82
2023/12/02 12:34:52;;;;;;;5.03;3.58;;;;;;;;;;6219871;23;20031;-83
2023/12/02 12:37:20;;;;;;;6.30;3.53;;;;;;;;;;6247519;23;20016;-82
2023/12/02 12:39:47;;;;;;;7.28;3.85;;;;;;;;;;6220533;23;20014;-82
2023/12/02 12:42:13;;;;;;;7.22;4.13;;;;;;;;;;6221151;23;20019;-82
2023/12/02 12:44:44;;;;;;;6.18;3.95;;;;;;;;;;6220925;23;20017;-82
2023/12/02 12:47:11;;;;;;;5.18;4.03;;;;;;;;;;6221017;23;20023;-82
2023/12/02 12:49:39;;;;;;;6.40;4.00;;;;;;;;;;6196408;23;20024;-82
2023/12/02 12:52:07;;;;;;;6.65;3.60;;;;;;;;;;6196620;23;20020;-82
2023/12/02 12:54:35;;;;;;;7.45;3.80;;;;;;;;;;6195940;23;20103;-82
2023/12/02 12:57:04;;;;;;;6.90;3.70;;;;;;;;;;6220988;23;20354;-82
2023/12/02 12:59:32;;;;;;;7.22;3.70;;;;;;;;;;6222315;23;20034;-82
2023/12/02 13:02:16;;;;;;;5.60;3.92;;;;;;;;;;6197385;23;20043;-82
2023/12/02 13:04:59;;;;;;;5.85;3.42;;;;;;;;;;6222503;23;20091;-82
2023/12/02 13:07:32;;;;;;;7.57;4.03;;;;;;;;;;6223339;23;20012;-82
2023/12/02 13:10:02;;;;;;;4.97;3.90;;;;;;;;;;6197149;23;20017;-82
2023/12/02 13:12:29;;;;;;;6.80;4.07;;;;;;;;;;6222624;23;20150;-82
2023/12/02 13:14:58;;;;;;;6.60;4.20;;;;;;;;;;6223015;23;20016;-84
2023/12/02 13:17:25;;;;;;;7.53;4.10;;;;;;;;;;6197699;23;20019;-82
2023/12/02 13:19:52;;;;;;;6.95;3.97;;;;;;;;;;6197938;23;20069;-82
2023/12/02 13:22:18;;;;;;;7.75;4.15;;;;;;;;;;6197942;23;20023;-82
2023/12/02 13:24:59;;;;;;;8.43;4.40;;;;;;;;;;6198303;23;20016;-85
2023/12/02 13:27:39;;;;;;;6.68;4.47;;;;;;;;;;6199039;23;20016;-83
2023/12/02 13:30:07;;;;;;;5.70;4.30;;;;;;;;;;6198561;23;20080;-83
2023/12/02 13:32:40;;;;;;;6.78;5.03;;;;;;;;;;6196410;23;20024;-83
2023/12/02 13:35:09;;;;;;;6.85;4.97;;;;;;;;;;6197953;23;20027;-82
2023/12/02 13:37:54;;;;;;;7.07;4.68;;;;;;;;;;6198096;23;20041;-81
2023/12/02 13:40:24;;;;;;;6.47;4.82;;;;;;;;;;6198253;23;20072;-82
2023/12/02 13:42:50;;;;;;;6.60;4.32;;;;;;;;;;6197450;23;20020;-82
2023/12/02 13:45:18;;;;;;;5.85;4.28;;;;;;;;;;6196133;23;20039;-82
2023/12/02 13:48:04;;;;;;;7.72;4.97;;;;;;;;;;6198236;23;20054;-83
2023/12/02 13:50:32;;;;;;;8.52;5.15;;;;;;;;;;6197608;23;20016;-83
2023/12/02 13:53:18;;;;;;;6.80;4.90;;;;;;;;;;6198300;23;20013;-83
2023/12/02 13:55:59;;;;;;;7.57;4.90;;;;;;;;;;6196637;23;20020;-83
2023/12/02 13:58:29;;;;;;;5.50;4.45;;;;;;;;;;6196254;23;20149;-84
2023/12/02 14:00:55;;;;;;;8.90;4.50;;;;;;;;;;6196517;23;20023;-84
2023/12/02 14:03:24;;;;;;;8.15;4.95;;;;;;;;;;6196427;23;20027;-84
2023/12/02 14:06:03;;;;;;;9.38;6.15;;;;;;;;;;6196648;23;20468;-83
2023/12/02 14:08:36;;;;;;;7.95;5.40;;;;;;;;;;6197286;23;20020;-83
2023/12/02 14:11:05;;;;;;;8.98;5.32;;;;;;;;;;6197052;23;20095;-83
2023/12/02 14:13:53;;;;;;;6.60;5.00;;;;;;;;;;6196592;23;20027;-83
2023/12/02 14:16:22;;;;;;;11.60;5.50;;;;;;;;;;6196560;23;20483;-83
2023/12/02 14:19:08;;;;;;;7.15;4.45;;;;;;;;;;6196801;23;20095;-83
2023/12/02 14:21:41;;;;;;;5.90;4.53;;;;;;;;;;6195478;23;20095;-83
2023/12/02 14:24:19;;;;;;;8.63;5.18;;;;;;;;;;6220965;23;20020;-83
2023/12/02 14:26:51;;;;;;;7.93;5.03;;;;;;;;;;6195910;23;20012;-83
2023/12/02 14:29:28;;;;;;;7.93;5.22;;;;;;;;;;6196586;23;20073;-83
2023/12/02 14:32:14;;;;;;;7.57;5.13;;;;;;;;;;6195595;23;20017;-84
2023/12/02 14:34:53;;;;;;;7.45;4.68;;;;;;;;;;6195086;23;20035;-87
2023/12/02 14:37:22;;;;;;;7.78;4.70;;;;;;;;;;6195773;23;20322;-85
2023/12/02 14:40:21;;;;;;;9.00;5.15;;;;;;;;;;6221706;23;20022;-83
2023/12/02 14:42:56;;;;;;;8.38;5.35;;;;;;;;;;6131510;23;20020;-83
2023/12/02 14:45:31;;;;;;;6.10;4.43;;;;;;;;;;6196140;23;20023;-83
2023/12/02 14:48:05;;;;;;;7.45;5.30;;;;;;;;;;6196448;23;20027;-83
2023/12/02 14:50:31;;;;;;;7.88;4.72;;;;;;;;;;6195749;23;20378;-83
2023/12/02 14:52:57;;;;;;;7.50;4.80;;;;;;;;;;6195946;23;20020;-83
2023/12/02 14:55:28;;;;;;;7.32;5.35;;;;;;;;;;6220887;23;20095;-83